sensor_id;sensor_type;location;lat;lon;timestamp;P1;durP1;ratioP1;P2;durP2;ratioP2
24411;SDS011;12544;46.760;15.942;2023-06-22T00:02:15;18.13;;;13.95;;
24411;SDS011;12544;46.760;15.942;2023-06-22T00:04:41;15.73;;;13.88;;
24411;SDS011;12544;46.760;15.942;2023-06-22T00:07:06;22.45;;;13.85;;
24411;SDS011;12544;46.760;15.942;2023-06-22T00:09:33;15.63;;;12.75;;
24411;SDS011;12544;46.760;15.942;2023-06-22T00:11:59;17.23;;;13.52;;
24411;SDS011;12544;46.760;15.942;2023-06-22T00:16:53;17.52;;;12.60;;
24411;SDS011;12544;46.760;15.942;2023-06-22T00:19:22;13.43;;;11.50;;
24411;SDS011;12544;46.760;15.942;2023-06-22T00:21:50;15.35;;;11.68;;
24411;SDS011;12544;46.760;15.942;2023-06-22T00:24:20;14.95;;;11.70;;
24411;SDS011;12544;46.760;15.942;2023-06-22T00:26:46;12.57;;;11.18;;
24411;SDS011;12544;46.760;15.942;2023-06-22T00:29:13;21.05;;;12.77;;
24411;SDS011;12544;46.760;15.942;2023-06-22T00:31:38;19.27;;;13.38;;
24411;SDS011;12544;46.760;15.942;2023-06-22T00:34:04;13.15;;;11.93;;
24411;SDS011;12544;46.760;15.942;2023-06-22T00:36:31;16.08;;;12.30;;
24411;SDS011;12544;46.760;15.942;2023-06-22T00:41:32;16.48;;;12.93;;
24411;SDS011;12544;46.760;15.942;2023-06-22T00:43:58;16.48;;;12.57;;
24411;SDS011;12544;46.760;15.942;2023-06-22T00:46:23;13.45;;;11.07;;
24411;SDS011;12544;46.760;15.942;2023-06-22T00:48:50;16.23;;;11.75;;
24411;SDS011;12544;46.760;15.942;2023-06-22T00:51:17;15.05;;;11.23;;
24411;SDS011;12544;46.760;15.942;2023-06-22T00:57:14;18.20;;;11.68;;
24411;SDS011;12544;46.760;15.942;2023-06-22T00:59:42;22.10;;;12.55;;
24411;SDS011;12544;46.760;15.942;2023-06-22T01:02:12;14.73;;;12.70;;
24411;SDS011;12544;46.760;15.942;2023-06-22T01:04:38;13.95;;;11.55;;
24411;SDS011;12544;46.760;15.942;2023-06-22T01:10:14;18.88;;;12.50;;
24411;SDS011;12544;46.760;15.942;2023-06-22T01:12:48;17.88;;;12.82;;
24411;SDS011;12544;46.760;15.942;2023-06-22T01:15:28;14.82;;;11.95;;
24411;SDS011;12544;46.760;15.942;2023-06-22T01:18:14;15.88;;;12.48;;
24411;SDS011;12544;46.760;15.942;2023-06-22T01:20:42;19.25;;;12.90;;
24411;SDS011;12544;46.760;15.942;2023-06-22T01:29:08;15.32;;;13.65;;
24411;SDS011;12544;46.760;15.942;2023-06-22T01:31:37;19.27;;;12.95;;
24411;SDS011;12544;46.760;15.942;2023-06-22T01:34:05;15.35;;;13.10;;
24411;SDS011;12544;46.760;15.942;2023-06-22T01:36:33;20.02;;;13.20;;
24411;SDS011;12544;46.760;15.942;2023-06-22T01:38:59;15.77;;;13.07;;
24411;SDS011;12544;46.760;15.942;2023-06-22T01:41:26;22.08;;;14.18;;
24411;SDS011;12544;46.760;15.942;2023-06-22T01:43:54;19.83;;;14.38;;
24411;SDS011;12544;46.760;15.942;2023-06-22T01:46:21;17.63;;;14.00;;
24411;SDS011;12544;46.760;15.942;2023-06-22T01:48:47;22.55;;;14.65;;
24411;SDS011;12544;46.760;15.942;2023-06-22T01:51:14;21.08;;;15.07;;
24411;SDS011;12544;46.760;15.942;2023-06-22T01:53:40;17.83;;;13.93;;
24411;SDS011;12544;46.760;15.942;2023-06-22T01:56:06;19.42;;;14.50;;
24411;SDS011;12544;46.760;15.942;2023-06-22T01:58:31;20.80;;;15.70;;
24411;SDS011;12544;46.760;15.942;2023-06-22T02:01:00;18.23;;;14.70;;
24411;SDS011;12544;46.760;15.942;2023-06-22T02:03:36;18.80;;;15.43;;
24411;SDS011;12544;46.760;15.942;2023-06-22T02:06:16;22.42;;;15.48;;
24411;SDS011;12544;46.760;15.942;2023-06-22T02:08:48;20.73;;;16.00;;
24411;SDS011;12544;46.760;15.942;2023-06-22T02:11:16;17.85;;;14.73;;
24411;SDS011;12544;46.760;15.942;2023-06-22T02:13:44;22.98;;;16.40;;
24411;SDS011;12544;46.760;15.942;2023-06-22T02:16:11;22.67;;;15.68;;
24411;SDS011;12544;46.760;15.942;2023-06-22T02:18:37;21.13;;;14.93;;
24411;SDS011;12544;46.760;15.942;2023-06-22T02:21:05;20.48;;;15.18;;
24411;SDS011;12544;46.760;15.942;2023-06-22T02:23:31;18.83;;;15.25;;
24411;SDS011;12544;46.760;15.942;2023-06-22T02:25:59;17.83;;;14.60;;
24411;SDS011;12544;46.760;15.942;2023-06-22T02:28:27;19.95;;;14.57;;
24411;SDS011;12544;46.760;15.942;2023-06-22T02:30:52;21.80;;;14.55;;
24411;SDS011;12544;46.760;15.942;2023-06-22T02:33:18;19.00;;;15.55;;
24411;SDS011;12544;46.760;15.942;2023-06-22T02:35:44;18.02;;;14.98;;
24411;SDS011;12544;46.760;15.942;2023-06-22T02:38:12;17.05;;;13.40;;
24411;SDS011;12544;46.760;15.942;2023-06-22T02:40:38;15.27;;;13.07;;
24411;SDS011;12544;46.760;15.942;2023-06-22T02:43:04;17.73;;;13.77;;
24411;SDS011;12544;46.760;15.942;2023-06-22T02:45:29;19.17;;;13.18;;
24411;SDS011;12544;46.760;15.942;2023-06-22T02:47:55;15.23;;;13.45;;
24411;SDS011;12544;46.760;15.942;2023-06-22T02:50:21;19.77;;;13.52;;
24411;SDS011;12544;46.760;15.942;2023-06-22T02:52:46;14.63;;;12.43;;
24411;SDS011;12544;46.760;15.942;2023-06-22T02:55:12;16.17;;;12.35;;
24411;SDS011;12544;46.760;15.942;2023-06-22T02:57:38;15.98;;;12.30;;
24411;SDS011;12544;46.760;15.942;2023-06-22T03:00:08;15.90;;;12.57;;
24411;SDS011;12544;46.760;15.942;2023-06-22T03:02:44;17.70;;;12.68;;
24411;SDS011;12544;46.760;15.942;2023-06-22T03:05:11;17.10;;;12.68;;
24411;SDS011;12544;46.760;15.942;2023-06-22T03:07:41;15.63;;;13.15;;
24411;SDS011;12544;46.760;15.942;2023-06-22T03:10:10;18.40;;;13.30;;
24411;SDS011;12544;46.760;15.942;2023-06-22T03:12:38;23.60;;;13.10;;
24411;SDS011;12544;46.760;15.942;2023-06-22T03:15:07;17.88;;;13.05;;
24411;SDS011;12544;46.760;15.942;2023-06-22T03:20:07;19.48;;;12.43;;
24411;SDS011;12544;46.760;15.942;2023-06-22T03:22:38;15.65;;;12.95;;
24411;SDS011;12544;46.760;15.942;2023-06-22T03:25:04;17.63;;;13.45;;
24411;SDS011;12544;46.760;15.942;2023-06-22T03:27:35;19.98;;;13.48;;
24411;SDS011;12544;46.760;15.942;2023-06-22T03:30:05;20.48;;;13.95;;
24411;SDS011;12544;46.760;15.942;2023-06-22T03:32:32;15.52;;;12.45;;
24411;SDS011;12544;46.760;15.942;2023-06-22T03:34:57;16.60;;;14.10;;
24411;SDS011;12544;46.760;15.942;2023-06-22T03:37:26;20.85;;;13.45;;
24411;SDS011;12544;46.760;15.942;2023-06-22T03:39:52;18.08;;;13.85;;
24411;SDS011;12544;46.760;15.942;2023-06-22T03:42:18;17.30;;;13.27;;
24411;SDS011;12544;46.760;15.942;2023-06-22T03:44:44;16.75;;;12.50;;
24411;SDS011;12544;46.760;15.942;2023-06-22T03:47:09;18.92;;;13.57;;
24411;SDS011;12544;46.760;15.942;2023-06-22T03:49:35;19.38;;;14.20;;
24411;SDS011;12544;46.760;15.942;2023-06-22T03:52:01;20.23;;;14.30;;
24411;SDS011;12544;46.760;15.942;2023-06-22T03:54:30;19.48;;;15.05;;
24411;SDS011;12544;46.760;15.942;2023-06-22T03:56:57;15.50;;;12.90;;
24411;SDS011;12544;46.760;15.942;2023-06-22T03:59:23;17.48;;;13.40;;
24411;SDS011;12544;46.760;15.942;2023-06-22T04:01:49;16.13;;;14.15;;
24411;SDS011;12544;46.760;15.942;2023-06-22T04:04:15;22.55;;;14.70;;
24411;SDS011;12544;46.760;15.942;2023-06-22T04:06:41;20.17;;;14.25;;
24411;SDS011;12544;46.760;15.942;2023-06-22T04:09:07;21.52;;;15.10;;
24411;SDS011;12544;46.760;15.942;2023-06-22T04:11:32;14.73;;;13.18;;
24411;SDS011;12544;46.760;15.942;2023-06-22T04:13:58;20.13;;;14.18;;
24411;SDS011;12544;46.760;15.942;2023-06-22T04:16:23;16.58;;;14.52;;
24411;SDS011;12544;46.760;15.942;2023-06-22T04:18:49;26.92;;;14.85;;
24411;SDS011;12544;46.760;15.942;2023-06-22T04:21:15;19.77;;;15.65;;
24411;SDS011;12544;46.760;15.942;2023-06-22T04:23:41;19.58;;;16.13;;
24411;SDS011;12544;46.760;15.942;2023-06-22T04:26:08;23.25;;;17.33;;
24411;SDS011;12544;46.760;15.942;2023-06-22T04:28:33;18.30;;;15.27;;
24411;SDS011;12544;46.760;15.942;2023-06-22T04:31:01;20.98;;;16.33;;
24411;SDS011;12544;46.760;15.942;2023-06-22T04:33:27;21.77;;;16.80;;
24411;SDS011;12544;46.760;15.942;2023-06-22T04:35:56;18.27;;;15.23;;
24411;SDS011;12544;46.760;15.942;2023-06-22T04:38:22;17.60;;;15.75;;
24411;SDS011;12544;46.760;15.942;2023-06-22T04:40:49;18.85;;;16.90;;
24411;SDS011;12544;46.760;15.942;2023-06-22T04:43:15;22.27;;;16.83;;
24411;SDS011;12544;46.760;15.942;2023-06-22T04:45:41;20.50;;;15.70;;
24411;SDS011;12544;46.760;15.942;2023-06-22T04:48:06;20.70;;;16.33;;
24411;SDS011;12544;46.760;15.942;2023-06-22T04:50:34;20.88;;;16.52;;
24411;SDS011;12544;46.760;15.942;2023-06-22T04:53:02;23.45;;;18.73;;
24411;SDS011;12544;46.760;15.942;2023-06-22T04:55:30;21.88;;;16.45;;
24411;SDS011;12544;46.760;15.942;2023-06-22T04:57:58;17.85;;;15.38;;
24411;SDS011;12544;46.760;15.942;2023-06-22T05:00:29;21.40;;;17.00;;
24411;SDS011;12544;46.760;15.942;2023-06-22T05:02:56;24.00;;;18.83;;
24411;SDS011;12544;46.760;15.942;2023-06-22T05:05:23;25.40;;;17.08;;
24411;SDS011;12544;46.760;15.942;2023-06-22T05:07:49;18.08;;;16.17;;
24411;SDS011;12544;46.760;15.942;2023-06-22T05:10:18;23.38;;;17.10;;
24411;SDS011;12544;46.760;15.942;2023-06-22T05:12:45;21.73;;;16.92;;
24411;SDS011;12544;46.760;15.942;2023-06-22T05:15:12;20.63;;;16.48;;
24411;SDS011;12544;46.760;15.942;2023-06-22T05:17:38;23.30;;;17.60;;
24411;SDS011;12544;46.760;15.942;2023-06-22T05:20:11;20.65;;;17.08;;
24411;SDS011;12544;46.760;15.942;2023-06-22T05:22:37;22.05;;;16.85;;
24411;SDS011;12544;46.760;15.942;2023-06-22T05:25:05;23.50;;;16.55;;
24411;SDS011;12544;46.760;15.942;2023-06-22T05:27:33;20.65;;;18.15;;
24411;SDS011;12544;46.760;15.942;2023-06-22T05:29:59;21.50;;;17.33;;
24411;SDS011;12544;46.760;15.942;2023-06-22T05:32:24;20.45;;;16.30;;
24411;SDS011;12544;46.760;15.942;2023-06-22T05:34:50;23.05;;;16.65;;
24411;SDS011;12544;46.760;15.942;2023-06-22T05:37:15;21.65;;;16.15;;
24411;SDS011;12544;46.760;15.942;2023-06-22T05:39:41;22.52;;;16.63;;
24411;SDS011;12544;46.760;15.942;2023-06-22T05:42:07;24.98;;;16.58;;
24411;SDS011;12544;46.760;15.942;2023-06-22T05:44:33;24.42;;;16.73;;
24411;SDS011;12544;46.760;15.942;2023-06-22T05:46:58;17.75;;;13.85;;
24411;SDS011;12544;46.760;15.942;2023-06-22T05:49:24;20.88;;;14.95;;
24411;SDS011;12544;46.760;15.942;2023-06-22T05:51:54;17.83;;;15.57;;
24411;SDS011;12544;46.760;15.942;2023-06-22T05:54:21;24.25;;;15.30;;
24411;SDS011;12544;46.760;15.942;2023-06-22T05:56:47;17.63;;;14.55;;
24411;SDS011;12544;46.760;15.942;2023-06-22T05:59:12;21.42;;;15.18;;
24411;SDS011;12544;46.760;15.942;2023-06-22T06:01:38;17.75;;;14.32;;
24411;SDS011;12544;46.760;15.942;2023-06-22T06:04:05;22.23;;;14.02;;
24411;SDS011;12544;46.760;15.942;2023-06-22T06:06:33;18.63;;;14.35;;
24411;SDS011;12544;46.760;15.942;2023-06-22T06:08:59;17.38;;;13.88;;
24411;SDS011;12544;46.760;15.942;2023-06-22T06:11:25;20.25;;;13.85;;
24411;SDS011;12544;46.760;15.942;2023-06-22T06:13:51;21.10;;;13.80;;
24411;SDS011;12544;46.760;15.942;2023-06-22T06:16:17;15.65;;;13.90;;
24411;SDS011;12544;46.760;15.942;2023-06-22T06:18:42;18.23;;;14.43;;
24411;SDS011;12544;46.760;15.942;2023-06-22T06:21:08;18.00;;;13.52;;
24411;SDS011;12544;46.760;15.942;2023-06-22T06:23:34;15.10;;;13.60;;
24411;SDS011;12544;46.760;15.942;2023-06-22T06:25:59;13.75;;;12.00;;
24411;SDS011;12544;46.760;15.942;2023-06-22T06:28:26;18.00;;;14.63;;
24411;SDS011;12544;46.760;15.942;2023-06-22T06:30:52;16.92;;;13.48;;
24411;SDS011;12544;46.760;15.942;2023-06-22T06:33:17;18.17;;;12.35;;
24411;SDS011;12544;46.760;15.942;2023-06-22T06:35:45;26.15;;;14.73;;
24411;SDS011;12544;46.760;15.942;2023-06-22T06:38:11;15.02;;;13.13;;
24411;SDS011;12544;46.760;15.942;2023-06-22T06:40:37;17.45;;;12.98;;
24411;SDS011;12544;46.760;15.942;2023-06-22T06:43:02;14.63;;;12.38;;
24411;SDS011;12544;46.760;15.942;2023-06-22T06:45:28;17.10;;;13.52;;
24411;SDS011;12544;46.760;15.942;2023-06-22T06:47:56;13.95;;;12.25;;
24411;SDS011;12544;46.760;15.942;2023-06-22T06:50:21;18.65;;;13.10;;
24411;SDS011;12544;46.760;15.942;2023-06-22T06:52:47;15.75;;;14.07;;
24411;SDS011;12544;46.760;15.942;2023-06-22T06:55:15;16.10;;;13.18;;
24411;SDS011;12544;46.760;15.942;2023-06-22T06:57:40;17.60;;;11.80;;
24411;SDS011;12544;46.760;15.942;2023-06-22T07:00:08;15.15;;;12.23;;
24411;SDS011;12544;46.760;15.942;2023-06-22T07:02:39;18.58;;;12.27;;
24411;SDS011;12544;46.760;15.942;2023-06-22T07:05:06;20.33;;;13.07;;
24411;SDS011;12544;46.760;15.942;2023-06-22T07:07:32;13.73;;;12.30;;
24411;SDS011;12544;46.760;15.942;2023-06-22T07:09:58;14.43;;;11.77;;
24411;SDS011;12544;46.760;15.942;2023-06-22T07:12:24;17.15;;;12.23;;
24411;SDS011;12544;46.760;15.942;2023-06-22T07:14:51;14.13;;;12.15;;
24411;SDS011;12544;46.760;15.942;2023-06-22T07:17:18;15.45;;;11.52;;
24411;SDS011;12544;46.760;15.942;2023-06-22T07:19:43;18.05;;;12.88;;
24411;SDS011;12544;46.760;15.942;2023-06-22T07:22:09;13.88;;;12.52;;
24411;SDS011;12544;46.760;15.942;2023-06-22T07:24:35;17.52;;;12.88;;
24411;SDS011;12544;46.760;15.942;2023-06-22T07:27:00;17.23;;;12.25;;
24411;SDS011;12544;46.760;15.942;2023-06-22T07:29:27;13.75;;;11.60;;
24411;SDS011;12544;46.760;15.942;2023-06-22T07:31:52;13.48;;;11.60;;
24411;SDS011;12544;46.760;15.942;2023-06-22T07:34:19;14.18;;;12.75;;
24411;SDS011;12544;46.760;15.942;2023-06-22T07:36:45;16.42;;;12.18;;
24411;SDS011;12544;46.760;15.942;2023-06-22T07:39:11;12.65;;;11.35;;
24411;SDS011;12544;46.760;15.942;2023-06-22T07:41:38;16.83;;;12.48;;
24411;SDS011;12544;46.760;15.942;2023-06-22T07:44:04;12.25;;;11.05;;
24411;SDS011;12544;46.760;15.942;2023-06-22T07:46:31;20.20;;;12.27;;
24411;SDS011;12544;46.760;15.942;2023-06-22T07:48:57;17.75;;;12.73;;
24411;SDS011;12544;46.760;15.942;2023-06-22T07:51:23;18.83;;;13.23;;
24411;SDS011;12544;46.760;15.942;2023-06-22T07:53:49;17.13;;;12.77;;
24411;SDS011;12544;46.760;15.942;2023-06-22T07:56:15;22.52;;;12.85;;
24411;SDS011;12544;46.760;15.942;2023-06-22T07:58:44;18.58;;;12.85;;
24411;SDS011;12544;46.760;15.942;2023-06-22T08:01:11;17.02;;;12.77;;
24411;SDS011;12544;46.760;15.942;2023-06-22T08:03:36;15.80;;;12.63;;
24411;SDS011;12544;46.760;15.942;2023-06-22T08:06:02;18.83;;;12.85;;
24411;SDS011;12544;46.760;15.942;2023-06-22T08:08:28;18.05;;;12.18;;
24411;SDS011;12544;46.760;15.942;2023-06-22T08:10:54;13.75;;;12.07;;
24411;SDS011;12544;46.760;15.942;2023-06-22T08:13:19;14.90;;;12.85;;
24411;SDS011;12544;46.760;15.942;2023-06-22T08:15:45;15.52;;;12.40;;
24411;SDS011;12544;46.760;15.942;2023-06-22T08:18:11;16.40;;;12.60;;
24411;SDS011;12544;46.760;15.942;2023-06-22T08:20:36;17.98;;;12.98;;
24411;SDS011;12544;46.760;15.942;2023-06-22T08:23:02;16.15;;;12.57;;
24411;SDS011;12544;46.760;15.942;2023-06-22T08:25:30;13.75;;;12.13;;
24411;SDS011;12544;46.760;15.942;2023-06-22T08:27:56;19.23;;;12.90;;
24411;SDS011;12544;46.760;15.942;2023-06-22T08:30:22;15.57;;;12.65;;
24411;SDS011;12544;46.760;15.942;2023-06-22T08:32:47;19.10;;;13.30;;
24411;SDS011;12544;46.760;15.942;2023-06-22T08:35:13;15.55;;;13.52;;
24411;SDS011;12544;46.760;15.942;2023-06-22T08:37:39;20.55;;;13.48;;
24411;SDS011;12544;46.760;15.942;2023-06-22T08:40:05;16.60;;;13.60;;
24411;SDS011;12544;46.760;15.942;2023-06-22T08:42:33;15.57;;;12.98;;
24411;SDS011;12544;46.760;15.942;2023-06-22T08:44:59;15.30;;;12.45;;
24411;SDS011;12544;46.760;15.942;2023-06-22T08:47:25;14.13;;;12.27;;
24411;SDS011;12544;46.760;15.942;2023-06-22T08:49:52;16.40;;;12.48;;
24411;SDS011;12544;46.760;15.942;2023-06-22T08:52:18;14.55;;;12.48;;
24411;SDS011;12544;46.760;15.942;2023-06-22T08:54:45;14.50;;;12.27;;
24411;SDS011;12544;46.760;15.942;2023-06-22T08:57:11;13.52;;;11.27;;
24411;SDS011;12544;46.760;15.942;2023-06-22T08:59:36;19.90;;;12.23;;
24411;SDS011;12544;46.760;15.942;2023-06-22T09:02:02;17.38;;;11.43;;
24411;SDS011;12544;46.760;15.942;2023-06-22T09:04:27;16.85;;;11.57;;
24411;SDS011;12544;46.760;15.942;2023-06-22T09:06:53;14.52;;;10.98;;
24411;SDS011;12544;46.760;15.942;2023-06-22T09:09:21;12.93;;;10.88;;
24411;SDS011;12544;46.760;15.942;2023-06-22T09:11:47;13.45;;;11.00;;
24411;SDS011;12544;46.760;15.942;2023-06-22T09:14:13;10.48;;;9.45;;
24411;SDS011;12544;46.760;15.942;2023-06-22T09:16:38;13.55;;;10.07;;
24411;SDS011;12544;46.760;15.942;2023-06-22T09:19:04;12.68;;;10.10;;
24411;SDS011;12544;46.760;15.942;2023-06-22T09:21:30;12.63;;;9.38;;
24411;SDS011;12544;46.760;15.942;2023-06-22T09:23:55;11.50;;;9.48;;
24411;SDS011;12544;46.760;15.942;2023-06-22T09:26:21;15.23;;;10.07;;
24411;SDS011;12544;46.760;15.942;2023-06-22T09:28:48;15.38;;;9.90;;
24411;SDS011;12544;46.760;15.942;2023-06-22T09:31:14;10.27;;;8.77;;
24411;SDS011;12544;46.760;15.942;2023-06-22T09:33:41;13.60;;;10.45;;
24411;SDS011;12544;46.760;15.942;2023-06-22T09:36:07;13.88;;;10.07;;
24411;SDS011;12544;46.760;15.942;2023-06-22T09:38:37;14.02;;;9.15;;
24411;SDS011;12544;46.760;15.942;2023-06-22T09:41:03;12.75;;;9.18;;
24411;SDS011;12544;46.760;15.942;2023-06-22T09:43:29;11.95;;;8.50;;
24411;SDS011;12544;46.760;15.942;2023-06-22T09:45:56;17.30;;;9.23;;
24411;SDS011;12544;46.760;15.942;2023-06-22T09:48:21;9.38;;;7.63;;
24411;SDS011;12544;46.760;15.942;2023-06-22T09:50:47;11.93;;;7.82;;
24411;SDS011;12544;46.760;15.942;2023-06-22T09:53:13;9.68;;;8.30;;
24411;SDS011;12544;46.760;15.942;2023-06-22T09:55:38;12.93;;;7.63;;
24411;SDS011;12544;46.760;15.942;2023-06-22T09:58:04;12.95;;;8.60;;
24411;SDS011;12544;46.760;15.942;2023-06-22T10:00:29;9.25;;;8.23;;
24411;SDS011;12544;46.760;15.942;2023-06-22T10:02:55;10.38;;;8.25;;
24411;SDS011;12544;46.760;15.942;2023-06-22T10:05:21;8.55;;;7.65;;
24411;SDS011;12544;46.760;15.942;2023-06-22T10:07:47;18.70;;;9.05;;
24411;SDS011;12544;46.760;15.942;2023-06-22T10:10:13;10.27;;;8.63;;
24411;SDS011;12544;46.760;15.942;2023-06-22T10:12:43;10.85;;;8.75;;
24411;SDS011;12544;46.760;15.942;2023-06-22T10:15:14;11.88;;;8.32;;
24411;SDS011;12544;46.760;15.942;2023-06-22T10:17:40;13.88;;;8.38;;
24411;SDS011;12544;46.760;15.942;2023-06-22T10:20:06;11.68;;;8.18;;
24411;SDS011;12544;46.760;15.942;2023-06-22T10:22:40;10.52;;;8.85;;
24411;SDS011;12544;46.760;15.942;2023-06-22T10:25:07;9.93;;;7.28;;
24411;SDS011;12544;46.760;15.942;2023-06-22T10:27:33;14.02;;;9.02;;
24411;SDS011;12544;46.760;15.942;2023-06-22T10:29:59;14.20;;;8.40;;
24411;SDS011;12544;46.760;15.942;2023-06-22T10:32:25;12.70;;;8.82;;
24411;SDS011;12544;46.760;15.942;2023-06-22T10:34:50;12.70;;;8.80;;
24411;SDS011;12544;46.760;15.942;2023-06-22T10:37:16;14.15;;;8.82;;
24411;SDS011;12544;46.760;15.942;2023-06-22T10:39:41;13.80;;;9.48;;
24411;SDS011;12544;46.760;15.942;2023-06-22T10:42:07;11.43;;;8.98;;
24411;SDS011;12544;46.760;15.942;2023-06-22T10:44:33;10.85;;;8.50;;
24411;SDS011;12544;46.760;15.942;2023-06-22T10:46:58;12.77;;;7.95;;
24411;SDS011;12544;46.760;15.942;2023-06-22T10:49:24;13.30;;;9.07;;
24411;SDS011;12544;46.760;15.942;2023-06-22T10:51:49;15.35;;;8.25;;
24411;SDS011;12544;46.760;15.942;2023-06-22T10:54:15;13.13;;;9.00;;
24411;SDS011;12544;46.760;15.942;2023-06-22T10:56:43;14.75;;;9.07;;
24411;SDS011;12544;46.760;15.942;2023-06-22T10:59:09;13.40;;;9.13;;
24411;SDS011;12544;46.760;15.942;2023-06-22T11:01:34;11.55;;;8.90;;
24411;SDS011;12544;46.760;15.942;2023-06-22T11:04:01;10.90;;;9.65;;
24411;SDS011;12544;46.760;15.942;2023-06-22T11:06:27;16.27;;;9.55;;
24411;SDS011;12544;46.760;15.942;2023-06-22T11:08:53;13.30;;;9.55;;
24411;SDS011;12544;46.760;15.942;2023-06-22T11:11:18;15.95;;;9.85;;
24411;SDS011;12544;46.760;15.942;2023-06-22T11:13:44;17.33;;;9.40;;
24411;SDS011;12544;46.760;15.942;2023-06-22T11:16:10;13.13;;;8.85;;
24411;SDS011;12544;46.760;15.942;2023-06-22T11:18:36;13.25;;;9.93;;
24411;SDS011;12544;46.760;15.942;2023-06-22T11:21:02;12.45;;;9.88;;
24411;SDS011;12544;46.760;15.942;2023-06-22T11:23:27;12.70;;;10.27;;
24411;SDS011;12544;46.760;15.942;2023-06-22T11:25:53;13.57;;;10.40;;
24411;SDS011;12544;46.760;15.942;2023-06-22T11:28:19;12.27;;;10.02;;
24411;SDS011;12544;46.760;15.942;2023-06-22T11:30:45;13.45;;;10.38;;
24411;SDS011;12544;46.760;15.942;2023-06-22T11:33:11;15.82;;;10.57;;
24411;SDS011;12544;46.760;15.942;2023-06-22T11:35:37;11.65;;;10.55;;
24411;SDS011;12544;46.760;15.942;2023-06-22T11:38:02;13.20;;;10.05;;
24411;SDS011;12544;46.760;15.942;2023-06-22T11:40:29;17.30;;;11.55;;
24411;SDS011;12544;46.760;15.942;2023-06-22T11:42:55;14.70;;;11.60;;
24411;SDS011;12544;46.760;15.942;2023-06-22T11:45:20;14.77;;;10.80;;
24411;SDS011;12544;46.760;15.942;2023-06-22T11:47:46;12.55;;;10.63;;
24411;SDS011;12544;46.760;15.942;2023-06-22T11:50:12;15.32;;;10.07;;
24411;SDS011;12544;46.760;15.942;2023-06-22T11:52:38;18.58;;;10.68;;
24411;SDS011;12544;46.760;15.942;2023-06-22T11:55:04;12.20;;;9.43;;
24411;SDS011;12544;46.760;15.942;2023-06-22T11:57:32;15.98;;;10.35;;
24411;SDS011;12544;46.760;15.942;2023-06-22T11:59:59;13.60;;;10.07;;
24411;SDS011;12544;46.760;15.942;2023-06-22T12:02:25;14.48;;;10.32;;
24411;SDS011;12544;46.760;15.942;2023-06-22T12:04:50;16.67;;;9.95;;
24411;SDS011;12544;46.760;15.942;2023-06-22T12:07:17;14.68;;;9.80;;
24411;SDS011;12544;46.760;15.942;2023-06-22T12:09:43;12.80;;;10.10;;
24411;SDS011;12544;46.760;15.942;2023-06-22T12:12:09;12.82;;;10.20;;
24411;SDS011;12544;46.760;15.942;2023-06-22T12:14:35;12.55;;;11.30;;
24411;SDS011;12544;46.760;15.942;2023-06-22T12:17:00;20.20;;;10.10;;
24411;SDS011;12544;46.760;15.942;2023-06-22T12:19:26;13.50;;;10.35;;
24411;SDS011;12544;46.760;15.942;2023-06-22T12:21:52;15.10;;;9.80;;
24411;SDS011;12544;46.760;15.942;2023-06-22T12:24:17;14.63;;;10.65;;
24411;SDS011;12544;46.760;15.942;2023-06-22T12:26:43;13.82;;;10.55;;
24411;SDS011;12544;46.760;15.942;2023-06-22T12:29:09;14.90;;;10.85;;
24411;SDS011;12544;46.760;15.942;2023-06-22T12:31:35;13.27;;;9.90;;
24411;SDS011;12544;46.760;15.942;2023-06-22T12:34:03;13.65;;;11.02;;
24411;SDS011;12544;46.760;15.942;2023-06-22T12:36:29;17.50;;;10.40;;
24411;SDS011;12544;46.760;15.942;2023-06-22T12:38:55;15.50;;;11.15;;
24411;SDS011;12544;46.760;15.942;2023-06-22T12:41:20;12.85;;;10.43;;
24411;SDS011;12544;46.760;15.942;2023-06-22T12:43:46;12.15;;;10.13;;
24411;SDS011;12544;46.760;15.942;2023-06-22T12:46:12;14.13;;;11.25;;
24411;SDS011;12544;46.760;15.942;2023-06-22T12:48:37;11.35;;;10.07;;
24411;SDS011;12544;46.760;15.942;2023-06-22T12:51:07;12.73;;;10.57;;
24411;SDS011;12544;46.760;15.942;2023-06-22T12:53:34;16.00;;;10.98;;
24411;SDS011;12544;46.760;15.942;2023-06-22T12:55:59;12.43;;;10.25;;
24411;SDS011;12544;46.760;15.942;2023-06-22T12:58:25;11.25;;;10.23;;
24411;SDS011;12544;46.760;15.942;2023-06-22T13:00:51;14.93;;;10.48;;
24411;SDS011;12544;46.760;15.942;2023-06-22T13:03:16;20.17;;;12.10;;
24411;SDS011;12544;46.760;15.942;2023-06-22T13:05:42;12.10;;;10.27;;
24411;SDS011;12544;46.760;15.942;2023-06-22T13:08:07;12.52;;;11.02;;
24411;SDS011;12544;46.760;15.942;2023-06-22T13:10:33;13.35;;;10.10;;
24411;SDS011;12544;46.760;15.942;2023-06-22T13:12:59;17.17;;;11.13;;
24411;SDS011;12544;46.760;15.942;2023-06-22T13:15:28;11.65;;;10.43;;
24411;SDS011;12544;46.760;15.942;2023-06-22T13:17:54;14.85;;;10.18;;
24411;SDS011;12544;46.760;15.942;2023-06-22T13:20:20;15.15;;;9.73;;
24411;SDS011;12544;46.760;15.942;2023-06-22T13:22:45;22.48;;;11.18;;
24411;SDS011;12544;46.760;15.942;2023-06-22T13:25:11;18.48;;;11.38;;
24411;SDS011;12544;46.760;15.942;2023-06-22T13:27:41;12.65;;;10.82;;
24411;SDS011;12544;46.760;15.942;2023-06-22T13:30:07;18.73;;;11.00;;
24411;SDS011;12544;46.760;15.942;2023-06-22T13:32:33;14.55;;;10.95;;
24411;SDS011;12544;46.760;15.942;2023-06-22T13:34:59;15.15;;;10.77;;
24411;SDS011;12544;46.760;15.942;2023-06-22T13:37:25;14.77;;;10.65;;
24411;SDS011;12544;46.760;15.942;2023-06-22T13:39:51;13.35;;;11.18;;
24411;SDS011;12544;46.760;15.942;2023-06-22T13:42:17;13.57;;;10.77;;
24411;SDS011;12544;46.760;15.942;2023-06-22T13:44:42;12.38;;;10.80;;
24411;SDS011;12544;46.760;15.942;2023-06-22T13:47:08;13.75;;;10.95;;
24411;SDS011;12544;46.760;15.942;2023-06-22T13:49:34;12.55;;;11.00;;
24411;SDS011;12544;46.760;15.942;2023-06-22T13:51:59;15.20;;;10.68;;
24411;SDS011;12544;46.760;15.942;2023-06-22T13:54:25;13.68;;;11.20;;
24411;SDS011;12544;46.760;15.942;2023-06-22T13:56:51;17.30;;;11.57;;
24411;SDS011;12544;46.760;15.942;2023-06-22T13:59:16;15.32;;;10.80;;
24411;SDS011;12544;46.760;15.942;2023-06-22T14:01:42;12.02;;;10.80;;
24411;SDS011;12544;46.760;15.942;2023-06-22T14:04:08;12.48;;;10.68;;
24411;SDS011;12544;46.760;15.942;2023-06-22T14:06:34;11.65;;;10.15;;
24411;SDS011;12544;46.760;15.942;2023-06-22T14:09:00;11.57;;;10.48;;
24411;SDS011;12544;46.760;15.942;2023-06-22T14:11:26;11.55;;;10.40;;
24411;SDS011;12544;46.760;15.942;2023-06-22T14:13:51;14.07;;;10.95;;
24411;SDS011;12544;46.760;15.942;2023-06-22T14:16:17;13.25;;;11.18;;
24411;SDS011;12544;46.760;15.942;2023-06-22T14:18:44;14.57;;;10.85;;
24411;SDS011;12544;46.760;15.942;2023-06-22T14:21:10;16.27;;;10.57;;
24411;SDS011;12544;46.760;15.942;2023-06-22T14:23:36;11.73;;;9.90;;
24411;SDS011;12544;46.760;15.942;2023-06-22T14:26:02;11.55;;;10.27;;
24411;SDS011;12544;46.760;15.942;2023-06-22T14:28:28;11.23;;;10.25;;